Time;durP1;ratioP1;P1;durP2;ratioP2;P2;SDS_P1;SDS_P2;PMS_P1;PMS_P2;Temp;Humidity;BMP_temperature;BMP_pressure;BME280_temperature;BME280_humidity;BME280_pressure;Samples;Min_cycle;Max_cycle;Signal;HPM_P1;HPM_P2
2023/08/30 00:00:42;;;;;;;45.08;25.13;;;13.00;99.90;;;;;;5103529;28;20081;-80
2023/08/30 00:03:08;;;;;;;48.47;25.13;;;13.00;99.90;;;;;;5107392;28;20031;-79
2023/08/30 00:05:34;;;;;;;47.60;25.65;;;12.90;99.90;;;;;;5102754;28;20052;-81
2023/08/30 00:07:59;;;;;;;54.75;26.70;;;12.90;99.90;;;;;;5103034;28;20089;-80
2023/08/30 00:10:25;;;;;;;50.00;26.40;;;12.90;99.90;;;;;;5108657;28;20118;-81
2023/08/30 00:12:51;;;;;;;52.13;26.40;;;12.90;99.90;;;;;;5107949;28;20035;-80
2023/08/30 00:15:16;;;;;;;46.25;25.65;;;12.90;99.90;;;;;;5091582;28;20030;-81
2023/08/30 00:17:42;;;;;;;48.55;27.30;;;12.90;99.90;;;;;;5110505;28;20028;-81
2023/08/30 00:20:08;;;;;;;47.70;26.85;;;13.00;99.90;;;;;;5109640;28;20047;-80
2023/08/30 00:22:34;;;;;;;45.80;25.42;;;13.00;99.90;;;;;;5108426;28;20031;-83
2023/08/30 00:25:00;;;;;;;55.13;27.58;;;12.90;99.90;;;;;;5111158;28;20031;-82
2023/08/30 00:27:25;;;;;;;52.00;27.23;;;12.80;99.90;;;;;;5109788;28;20024;-82
2023/08/30 00:29:51;;;;;;;53.30;27.45;;;12.90;99.90;;;;;;5090455;28;20040;-82
2023/08/30 00:32:17;;;;;;;51.60;26.67;;;12.90;99.90;;;;;;5109789;28;20015;-82
2023/08/30 00:34:42;;;;;;;47.05;26.90;;;12.80;99.90;;;;;;5107633;28;20110;-82
2023/08/30 00:37:08;;;;;;;53.40;27.30;;;12.90;99.90;;;;;;5108857;28;20028;-81
2023/08/30 00:39:37;;;;;;;49.47;27.63;;;12.90;99.90;;;;;;5092084;28;20036;-81
2023/08/30 00:42:05;;;;;;;52.20;26.98;;;12.80;99.90;;;;;;5107047;28;20032;-82
2023/08/30 00:44:32;;;;;;;49.75;26.73;;;12.80;99.90;;;;;;5109471;28;20073;-82
2023/08/30 00:46:58;;;;;;;54.28;28.10;;;12.80;99.90;;;;;;5084662;28;20671;-84
2023/08/30 00:49:24;;;;;;;50.33;26.95;;;12.80;99.90;;;;;;5109887;28;20027;-82
2023/08/30 00:51:50;;;;;;;48.67;25.23;;;12.70;99.90;;;;;;5108846;28;20129;-82
2023/08/30 00:54:16;;;;;;;45.13;24.60;;;12.80;99.90;;;;;;5108594;28;20114;-82
2023/08/30 00:56:41;;;;;;;43.85;24.40;;;12.80;99.90;;;;;;5110165;28;20050;-81
2023/08/30 00:59:07;;;;;;;45.22;24.98;;;12.80;99.90;;;;;;5088210;28;20448;-82
2023/08/30 01:01:33;;;;;;;45.63;25.15;;;12.80;99.90;;;;;;5083001;28;20031;-82
2023/08/30 01:03:58;;;;;;;47.45;25.77;;;12.70;99.90;;;;;;5077974;28;20044;-82
2023/08/30 01:06:24;;;;;;;48.70;25.13;;;12.70;99.90;;;;;;5110184;28;20027;-82
2023/08/30 01:08:51;;;;;;;48.95;25.70;;;12.70;99.90;;;;;;5109267;28;20028;-81
2023/08/30 01:11:25;;;;;;;45.63;25.73;;;12.70;99.90;;;;;;5102656;28;20036;-81
2023/08/30 01:14:00;;;;;;;46.20;25.55;;;12.60;99.90;;;;;;5107135;28;20035;-81
2023/08/30 01:16:26;;;;;;;47.50;25.67;;;12.70;99.90;;;;;;5106398;28;20031;-81
2023/08/30 01:18:56;;;;;;;46.60;25.15;;;12.70;99.90;;;;;;5108134;28;20032;-81
2023/08/30 01:21:33;;;;;;;42.58;23.52;;;12.70;99.90;;;;;;5110411;28;20035;-82
2023/08/30 01:24:00;;;;;;;46.47;25.20;;;12.70;99.90;;;;;;5090827;28;20160;-82
2023/08/30 01:26:51;;;;;;;42.60;23.48;;;12.60;99.90;;;;;;5107783;28;20023;-81
2023/08/30 01:29:20;;;;;;;43.28;23.00;;;12.60;99.90;;;;;;5092242;28;20468;-81
2023/08/30 01:31:48;;;;;;;44.13;24.25;;;12.60;99.90;;;;;;5108188;28;20042;-80
2023/08/30 01:34:15;;;;;;;48.85;24.83;;;12.60;99.90;;;;;;5073220;28;20062;-82
2023/08/30 01:36:42;;;;;;;48.25;24.88;;;12.60;99.90;;;;;;5090050;28;20506;-85
2023/08/30 01:39:10;;;;;;;44.50;24.48;;;12.60;99.90;;;;;;5107758;28;20056;-81
2023/08/30 01:41:37;;;;;;;44.60;24.23;;;12.60;99.90;;;;;;5108566;28;20038;-81
2023/08/30 01:44:05;;;;;;;44.85;24.52;;;12.50;99.90;;;;;;5097922;28;20773;-81
2023/08/30 01:46:33;;;;;;;46.38;24.15;;;12.50;99.90;;;;;;5108866;28;20077;-82
2023/08/30 01:48:59;;;;;;;47.92;24.15;;;12.50;99.90;;;;;;5106667;28;20414;-82
2023/08/30 01:51:25;;;;;;;41.33;24.77;;;12.60;99.90;;;;;;5109239;28;20118;-82
2023/08/30 01:53:54;;;;;;;45.03;23.52;;;12.50;99.90;;;;;;5097999;28;20031;-81
2023/08/30 01:56:19;;;;;;;45.42;24.13;;;12.50;99.90;;;;;;5076299;28;20032;-82
2023/08/30 01:58:45;;;;;;;44.47;23.63;;;12.60;99.90;;;;;;5105090;28;20034;-82
2023/08/30 02:01:11;;;;;;;40.55;23.63;;;12.60;99.90;;;;;;5107576;28;20042;-81
2023/08/30 02:03:37;;;;;;;36.40;22.08;;;12.50;99.90;;;;;;5080927;28;20032;-80
2023/08/30 02:06:21;;;;;;;43.22;23.08;;;12.60;99.90;;;;;;5108723;28;20203;-82
2023/08/30 02:09:03;;;;;;;45.10;23.98;;;12.70;99.90;;;;;;5109776;28;20024;-81
2023/08/30 02:11:32;;;;;;;42.72;24.02;;;12.70;99.90;;;;;;5091509;28;20035;-82
2023/08/30 02:13:59;;;;;;;39.13;22.92;;;12.60;99.90;;;;;;5106448;28;20039;-81
2023/08/30 02:16:29;;;;;;;43.50;22.85;;;12.60;99.90;;;;;;5107781;28;20700;-81
2023/08/30 02:18:55;;;;;;;38.45;21.02;;;12.60;99.90;;;;;;5108629;28;20048;-81
2023/08/30 02:21:21;;;;;;;40.90;22.75;;;12.60;99.90;;;;;;5107893;28;20111;-82
2023/08/30 02:23:52;;;;;;;39.60;22.00;;;12.50;99.90;;;;;;5074764;28;20062;-82
2023/08/30 02:26:21;;;;;;;41.05;22.45;;;12.50;99.90;;;;;;5093183;28;20027;-81
2023/08/30 02:28:47;;;;;;;42.03;21.77;;;12.50;99.90;;;;;;5107140;28;20093;-81
2023/08/30 02:31:12;;;;;;;38.83;20.63;;;12.50;99.90;;;;;;5079882;28;20066;-80
2023/08/30 02:33:38;;;;;;;37.45;20.95;;;12.50;99.90;;;;;;5101446;28;20040;-80
2023/08/30 02:36:04;;;;;;;59.05;22.80;;;12.50;99.90;;;;;;5103568;28;20108;-82
2023/08/30 02:38:30;;;;;;;46.15;22.58;;;12.60;99.90;;;;;;5087593;28;20035;-82
2023/08/30 02:40:56;;;;;;;565.08;30.45;;;12.60;99.90;;;;;;5106622;28;20039;-80
2023/08/30 02:43:22;;;;;;;137.18;23.13;;;12.60;99.90;;;;;;5105481;28;20418;-80
2023/08/30 02:45:47;;;;;;;177.27;23.15;;;12.60;99.90;;;;;;5105118;28;20081;-81
2023/08/30 02:48:14;;;;;;;55.53;20.85;;;12.60;99.90;;;;;;5086738;28;20690;-81
2023/08/30 02:50:40;;;;;;;45.45;21.02;;;12.60;99.90;;;;;;5102437;28;20100;-81
2023/08/30 02:53:09;;;;;;;38.47;21.13;;;12.60;99.90;;;;;;5105418;28;20104;-82
2023/08/30 02:55:35;;;;;;;43.83;23.38;;;12.60;99.90;;;;;;5108153;28;20095;-81
2023/08/30 02:58:01;;;;;;;39.78;22.15;;;12.60;99.90;;;;;;5108088;28;20114;-81
2023/08/30 03:00:27;;;;;;;40.47;20.98;;;12.70;99.90;;;;;;5104004;28;20035;-82
2023/08/30 03:02:52;;;;;;;36.03;20.40;;;12.70;99.90;;;;;;5104613;28;20506;-82
2023/08/30 03:05:18;;;;;;;36.85;20.75;;;12.60;99.90;;;;;;5095626;28;20032;-82
2023/08/30 03:07:44;;;;;;;36.05;20.23;;;12.60;99.90;;;;;;5100373;28;20030;-82
2023/08/30 03:10:11;;;;;;;35.05;19.95;;;12.60;99.90;;;;;;5096921;28;20528;-82
2023/08/30 03:12:37;;;;;;;40.63;20.75;;;12.60;99.90;;;;;;5108331;28;20476;-81
2023/08/30 03:15:04;;;;;;;34.25;20.30;;;12.50;99.90;;;;;;5084814;28;20028;-81
2023/08/30 03:17:29;;;;;;;35.70;20.05;;;12.50;99.90;;;;;;5104692;28;20043;-81
2023/08/30 03:19:55;;;;;;;33.70;19.35;;;12.50;99.90;;;;;;5079573;28;20068;-82
2023/08/30 03:22:21;;;;;;;36.40;20.83;;;12.40;99.90;;;;;;5106514;28;20448;-83
2023/08/30 03:24:47;;;;;;;50.65;19.58;;;12.40;99.90;;;;;;5106543;28;20023;-83
2023/08/30 03:27:13;;;;;;;34.97;19.77;;;12.30;99.90;;;;;;5099896;28;20024;-81
2023/08/30 03:29:38;;;;;;;39.00;19.88;;;12.30;99.90;;;;;;5089274;28;20129;-81
2023/08/30 03:32:04;;;;;;;33.45;20.23;;;12.30;99.90;;;;;;5107850;28;20039;-81
2023/08/30 03:34:30;;;;;;;35.22;20.40;;;12.30;99.90;;;;;;5106559;28;20019;-81
2023/08/30 03:36:55;;;;;;;36.78;21.10;;;12.30;99.90;;;;;;5107835;28;20032;-81
2023/08/30 03:39:22;;;;;;;37.30;21.42;;;12.20;99.90;;;;;;5118477;28;20390;-83
2023/08/30 03:41:48;;;;;;;36.00;20.92;;;12.20;99.90;;;;;;5096628;28;20038;-83
2023/08/30 03:44:13;;;;;;;39.63;20.92;;;12.20;99.90;;;;;;5089933;28;20114;-81
2023/08/30 03:46:39;;;;;;;35.42;20.35;;;12.20;99.90;;;;;;5088349;28;20135;-81
2023/08/30 03:49:04;;;;;;;36.05;20.63;;;12.20;99.90;;;;;;5109664;28;20031;-82
2023/08/30 03:51:30;;;;;;;37.05;20.77;;;12.20;99.90;;;;;;5111315;28;20040;-82
2023/08/30 03:53:58;;;;;;;43.22;22.50;;;12.20;99.90;;;;;;5110481;28;20499;-81
2023/08/30 03:56:24;;;;;;;41.80;22.67;;;12.20;99.90;;;;;;5100699;28;20535;-81
2023/08/30 03:58:50;;;;;;;39.90;20.88;;;12.20;99.90;;;;;;5106743;28;20035;-77
2023/08/30 04:01:16;;;;;;;38.38;21.23;;;12.20;99.90;;;;;;5085849;28;20031;-80
2023/08/30 04:03:41;;;;;;;37.33;20.65;;;12.10;99.90;;;;;;5106125;28;20030;-80
2023/08/30 04:06:07;;;;;;;37.30;20.92;;;12.10;99.90;;;;;;5107218;28;20585;-81
2023/08/30 04:08:33;;;;;;;38.33;20.98;;;12.10;99.90;;;;;;5104456;28;20028;-79
2023/08/30 04:10:58;;;;;;;34.92;21.33;;;12.10;99.90;;;;;;5105735;28;20088;-82
2023/08/30 04:13:24;;;;;;;35.08;20.50;;;12.00;99.90;;;;;;5111027;27;20031;-81
2023/08/30 04:15:51;;;;;;;34.85;20.00;;;12.00;99.90;;;;;;5109138;28;20042;-78
2023/08/30 04:18:16;;;;;;;35.95;20.88;;;12.00;99.90;;;;;;5110746;28;20032;-78
2023/08/30 04:20:46;;;;;;;40.42;21.75;;;12.10;99.90;;;;;;5109341;28;20034;-78
2023/08/30 04:23:13;;;;;;;171.15;19.95;;;12.10;99.90;;;;;;5109303;28;20534;-78
2023/08/30 04:25:38;;;;;;;92.90;18.50;;;12.10;99.90;;;;;;5107816;28;20479;-79
2023/08/30 04:28:04;;;;;;;35.80;17.95;;;12.10;99.90;;;;;;5107292;28;20035;-78
2023/08/30 04:30:30;;;;;;;34.60;18.95;;;12.10;99.90;;;;;;5089335;28;20053;-79
2023/08/30 04:32:55;;;;;;;35.58;18.83;;;12.10;99.90;;;;;;5105934;28;20040;-78
2023/08/30 04:35:21;;;;;;;35.63;20.25;;;12.10;99.90;;;;;;5086796;28;20432;-78
2023/08/30 04:37:48;;;;;;;32.75;19.52;;;12.20;99.90;;;;;;5105455;28;20034;-81
2023/08/30 04:40:14;;;;;;;36.22;19.80;;;12.20;99.90;;;;;;5105034;28;20131;-79
2023/08/30 04:42:40;;;;;;;34.00;19.88;;;12.20;99.90;;;;;;5081113;28;20023;-81
2023/08/30 04:45:07;;;;;;;35.45;19.33;;;12.20;99.90;;;;;;5084970;28;20491;-79
2023/08/30 04:47:33;;;;;;;42.33;21.75;;;12.30;99.90;;;;;;5100853;27;20428;-80
2023/08/30 04:49:59;;;;;;;36.22;20.90;;;12.30;99.90;;;;;;5104324;28;20065;-76
2023/08/30 04:52:25;;;;;;;36.03;21.40;;;12.30;99.90;;;;;;5109080;28;20478;-78
2023/08/30 04:54:51;;;;;;;36.28;20.25;;;12.40;99.90;;;;;;5107287;28;20096;-77
2023/08/30 04:57:17;;;;;;;51.53;23.40;;;12.40;99.90;;;;;;5105163;28;20062;-75
2023/08/30 04:59:44;;;;;;;39.58;21.50;;;12.40;99.90;;;;;;5105285;28;20061;-77
2023/08/30 05:02:10;;;;;;;36.28;21.15;;;12.40;99.90;;;;;;5105547;28;20028;-75
2023/08/30 05:04:36;;;;;;;34.10;20.10;;;12.40;99.90;;;;;;5109905;27;20044;-76
2023/08/30 05:07:02;;;;;;;31.80;18.38;;;12.40;99.90;;;;;;5109276;28;20031;-75
2023/08/30 05:09:29;;;;;;;34.17;19.23;;;12.40;99.90;;;;;;5089485;28;20058;-79
2023/08/30 05:11:55;;;;;;;38.47;21.23;;;12.40;99.90;;;;;;5110058;28;20035;-77
2023/08/30 05:14:21;;;;;;;37.38;21.92;;;12.40;99.90;;;;;;5090794;28;20048;-77
2023/08/30 05:16:46;;;;;;;40.20;22.58;;;12.50;99.90;;;;;;5109421;28;20114;-75
2023/08/30 05:19:12;;;;;;;39.60;21.33;;;12.50;99.90;;;;;;5106019;28;20085;-78
2023/08/30 05:21:38;;;;;;;41.35;21.88;;;12.60;99.90;;;;;;5107898;28;20034;-78
2023/08/30 05:24:07;;;;;;;41.13;21.45;;;12.60;99.90;;;;;;5085809;28;20046;-74
2023/08/30 05:26:32;;;;;;;33.35;20.05;;;12.60;99.90;;;;;;5110143;28;20024;-77
2023/08/30 05:28:58;;;;;;;31.80;17.88;;;12.60;99.90;;;;;;5108254;28;20028;-79
2023/08/30 05:31:24;;;;;;;36.50;19.35;;;12.70;99.90;;;;;;5110127;28;20046;-78
2023/08/30 05:33:49;;;;;;;30.25;17.52;;;12.70;99.90;;;;;;5108364;28;20105;-78
2023/08/30 05:36:15;;;;;;;32.40;18.83;;;12.70;99.90;;;;;;5108769;28;20035;-79
2023/08/30 05:38:41;;;;;;;32.03;18.85;;;12.80;99.90;;;;;;5108819;27;20039;-76
2023/08/30 05:41:07;;;;;;;34.60;19.05;;;12.70;99.90;;;;;;5109300;28;20345;-76
2023/08/30 05:43:33;;;;;;;38.30;18.85;;;12.80;99.90;;;;;;5109882;28;20030;-76
2023/08/30 05:46:02;;;;;;;29.90;17.92;;;12.80;99.90;;;;;;5107835;28;20031;-78
2023/08/30 05:48:32;;;;;;;34.50;20.10;;;12.90;99.90;;;;;;5108041;28;20042;-77
2023/08/30 05:50:58;;;;;;;29.42;18.05;;;13.00;99.90;;;;;;5088594;28;20051;-79
2023/08/30 05:53:24;;;;;;;34.85;19.60;;;13.10;99.90;;;;;;5076714;28;20035;-77
2023/08/30 05:55:49;;;;;;;36.25;19.58;;;13.20;99.90;;;;;;5106863;27;20677;-78
2023/08/30 05:58:15;;;;;;;36.42;19.55;;;13.20;99.90;;;;;;5095797;28;20065;-76
2023/08/30 06:00:41;;;;;;;31.50;18.60;;;13.20;99.90;;;;;;5088005;28;20043;-76
2023/08/30 06:03:07;;;;;;;39.70;19.90;;;13.20;99.90;;;;;;5106642;28;20035;-77
2023/08/30 06:05:34;;;;;;;34.50;19.75;;;13.20;99.90;;;;;;5107519;28;20038;-78
2023/08/30 06:08:00;;;;;;;32.75;19.00;;;13.20;99.90;;;;;;5102454;28;20028;-77
2023/08/30 06:10:26;;;;;;;31.85;19.17;;;13.20;99.90;;;;;;5103566;28;20031;-79
2023/08/30 06:12:52;;;;;;;32.78;19.45;;;13.20;99.90;;;;;;5127443;27;20378;-78
2023/08/30 06:15:18;;;;;;;30.10;18.55;;;13.20;99.90;;;;;;5108303;27;20027;-79
2023/08/30 06:17:43;;;;;;;34.40;18.60;;;13.20;99.90;;;;;;5107702;28;20063;-80
2023/08/30 06:20:09;;;;;;;30.88;18.33;;;13.20;99.90;;;;;;5104636;28;20047;-77
2023/08/30 06:22:35;;;;;;;38.08;20.00;;;13.20;99.90;;;;;;5086865;28;20081;-77
2023/08/30 06:25:00;;;;;;;32.45;18.10;;;13.10;99.90;;;;;;5106548;28;20034;-77
2023/08/30 06:27:26;;;;;;;33.88;19.77;;;13.10;99.90;;;;;;5099840;28;20709;-77
2023/08/30 06:29:52;;;;;;;36.53;19.85;;;13.10;99.90;;;;;;5112762;27;20055;-77
2023/08/30 06:32:18;;;;;;;34.45;19.90;;;13.10;99.90;;;;;;5087988;28;20094;-79
2023/08/30 06:34:43;;;;;;;35.75;20.80;;;13.20;99.90;;;;;;5108548;28;20051;-78
2023/08/30 06:37:09;;;;;;;34.80;20.50;;;13.20;99.90;;;;;;5103465;28;20042;-80
2023/08/30 06:39:36;;;;;;;35.47;20.42;;;13.30;99.90;;;;;;5105315;28;20544;-78
2023/08/30 06:42:02;;;;;;;35.20;20.35;;;13.30;99.90;;;;;;5085981;28;20121;-77
2023/08/30 06:44:29;;;;;;;34.28;19.48;;;13.40;99.90;;;;;;5089727;28;20058;-78
2023/08/30 06:46:58;;;;;;;32.50;20.13;;;13.40;99.90;;;;;;5108262;28;20176;-77
2023/08/30 06:49:24;;;;;;;33.70;19.83;;;13.40;99.90;;;;;;5100624;28;20032;-76
2023/08/30 06:51:50;;;;;;;32.67;19.58;;;13.40;99.90;;;;;;5107729;28;20046;-78
2023/08/30 06:54:16;;;;;;;32.85;19.25;;;13.50;99.90;;;;;;5104027;28;20071;-79
2023/08/30 06:56:45;;;;;;;33.38;19.30;;;13.60;99.90;;;;;;5106680;28;20483;-78
2023/08/30 06:59:11;;;;;;;33.65;19.70;;;13.60;99.90;;;;;;5106927;28;20164;-78
2023/08/30 07:01:36;;;;;;;36.78;18.67;;;13.70;99.90;;;;;;5108261;28;20414;-77
2023/08/30 07:04:02;;;;;;;30.52;18.33;;;13.70;99.90;;;;;;5107333;28;20732;-76
2023/08/30 07:06:30;;;;;;;30.83;18.73;;;13.70;99.90;;;;;;5095082;28;20032;-77
2023/08/30 07:08:56;;;;;;;31.20;18.40;;;13.80;99.90;;;;;;5102307;28;20024;-75
2023/08/30 07:11:22;;;;;;;29.13;17.70;;;13.90;99.90;;;;;;5098434;28;20039;-78
2023/08/30 07:13:47;;;;;;;27.83;16.02;;;14.00;99.90;;;;;;5101827;28;20776;-80
2023/08/30 07:16:13;;;;;;;27.70;16.33;;;14.00;99.90;;;;;;5095168;28;20485;-77
2023/08/30 07:18:39;;;;;;;28.48;17.15;;;14.10;99.90;;;;;;5096830;28;20084;-77
2023/08/30 07:21:05;;;;;;;22.58;14.40;;;14.20;99.90;;;;;;5079652;28;20027;-79
2023/08/30 07:23:31;;;;;;;23.67;15.38;;;14.20;99.90;;;;;;5108329;28;20448;-81
2023/08/30 07:25:56;;;;;;;23.92;15.05;;;14.30;99.90;;;;;;5109567;28;20141;-76
2023/08/30 07:28:22;;;;;;;23.27;15.07;;;14.30;99.90;;;;;;5109649;28;20538;-78
2023/08/30 07:30:47;;;;;;;24.55;14.93;;;14.40;99.90;;;;;;5097322;28;20036;-76
2023/08/30 07:33:13;;;;;;;24.65;15.73;;;14.40;99.90;;;;;;5108728;28;20058;-78
2023/08/30 07:35:40;;;;;;;23.50;14.57;;;14.40;99.90;;;;;;5108217;28;20035;-76
2023/08/30 07:38:06;;;;;;;23.25;14.18;;;14.60;99.90;;;;;;5108721;28;20016;-76
2023/08/30 07:40:31;;;;;;;30.35;14.45;;;14.50;99.90;;;;;;5111451;28;20035;-79
2023/08/30 07:42:57;;;;;;;23.20;13.98;;;14.60;99.90;;;;;;5111095;28;20378;-79
2023/08/30 07:45:22;;;;;;;25.52;14.15;;;14.50;99.90;;;;;;5110651;28;20080;-77
2023/08/30 07:47:48;;;;;;;22.02;13.32;;;14.60;99.90;;;;;;5108680;28;20485;-76
2023/08/30 07:50:14;;;;;;;20.52;12.80;;;14.60;99.90;;;;;;5106787;28;20912;-75
2023/08/30 07:52:39;;;;;;;25.15;13.73;;;14.70;99.90;;;;;;5109851;28;20031;-76
2023/08/30 07:55:05;;;;;;;22.83;12.80;;;14.70;99.90;;;;;;5111683;28;20030;-79
2023/08/30 07:57:31;;;;;;;22.15;13.95;;;14.80;99.90;;;;;;5104672;28;20601;-76
2023/08/30 07:59:56;;;;;;;22.38;12.45;;;14.80;99.90;;;;;;5109717;28;20024;-76
2023/08/30 08:02:22;;;;;;;27.25;13.05;;;14.80;99.90;;;;;;5110995;28;20494;-76
2023/08/30 08:04:51;;;;;;;20.95;12.40;;;14.90;99.90;;;;;;5091378;28;20058;-76
2023/08/30 08:07:17;;;;;;;19.43;12.37;;;14.90;99.90;;;;;;5109111;28;20046;-77
2023/08/30 08:09:43;;;;;;;17.60;11.82;;;15.00;99.90;;;;;;5103924;28;20870;-75
2023/08/30 08:12:09;;;;;;;22.23;12.95;;;14.90;99.90;;;;;;5106645;28;20036;-75
2023/08/30 08:14:34;;;;;;;23.42;13.07;;;15.10;99.90;;;;;;5107266;28;20515;-74
2023/08/30 08:17:00;;;;;;;20.95;12.95;;;15.20;99.90;;;;;;5108851;28;20109;-77
2023/08/30 08:19:26;;;;;;;18.83;12.25;;;15.20;99.90;;;;;;5109120;28;20110;-75
2023/08/30 08:21:53;;;;;;;18.52;12.15;;;15.20;99.90;;;;;;5111354;28;20031;-78
2023/08/30 08:24:19;;;;;;;20.77;13.32;;;15.20;99.90;;;;;;5108590;28;20027;-78
2023/08/30 08:26:44;;;;;;;21.23;12.73;;;15.30;99.90;;;;;;5105911;28;20412;-77
2023/08/30 08:29:10;;;;;;;21.85;12.73;;;15.30;99.90;;;;;;5105230;28;20047;-78
2023/08/30 08:31:36;;;;;;;22.85;12.50;;;15.30;99.90;;;;;;5110034;28;20061;-76
2023/08/30 08:34:10;;;;;;;24.17;12.32;;;15.30;99.90;;;;;;5106899;28;20063;-75
2023/08/30 08:36:40;;;;;;;26.73;12.55;;;15.40;99.90;;;;;;5108709;28;20036;-79
2023/08/30 08:39:06;;;;;;;20.58;12.25;;;15.40;99.90;;;;;;5109530;28;20035;-76
2023/08/30 08:41:42;;;;;;;17.17;11.63;;;15.50;99.90;;;;;;5108112;28;20031;-73
2023/08/30 08:44:09;;;;;;;17.83;11.63;;;15.40;99.90;;;;;;5099739;27;20106;-75
2023/08/30 08:46:39;;;;;;;20.52;11.77;;;15.40;99.90;;;;;;5110026;28;20055;-74
2023/08/30 08:49:23;;;;;;;16.70;11.13;;;15.40;99.90;;;;;;5107382;28;20371;-79
2023/08/30 08:51:49;;;;;;;16.60;10.77;;;15.50;99.90;;;;;;5109364;28;20031;-79
2023/08/30 08:54:18;;;;;;;20.73;12.07;;;15.60;99.90;;;;;;5098507;28;20734;-74
2023/08/30 08:56:45;;;;;;;17.02;11.95;;;15.60;99.90;;;;;;5090816;28;20032;-75
2023/08/30 08:59:11;;;;;;;19.55;11.57;;;15.70;99.90;;;;;;5102192;28;20119;-77
2023/08/30 09:01:39;;;;;;;21.35;12.52;;;15.80;99.90;;;;;;5108192;28;20110;-75
2023/08/30 09:04:11;;;;;;;16.83;11.38;;;15.80;99.90;;;;;;5109050;28;20080;-75
2023/08/30 09:06:39;;;;;;;17.65;11.00;;;15.80;99.90;;;;;;5090550;28;20023;-78
2023/08/30 09:09:06;;;;;;;17.30;11.02;;;15.90;99.90;;;;;;5105231;28;20028;-78
2023/08/30 09:11:32;;;;;;;14.13;9.45;;;15.90;99.90;;;;;;5110426;28;20031;-74
2023/08/30 09:13:58;;;;;;;14.80;9.48;;;15.90;99.90;;;;;;5107979;28;20043;-75
2023/08/30 09:16:24;;;;;;;15.52;9.05;;;15.80;99.90;;;;;;5107509;28;20478;-77
2023/08/30 09:19:04;;;;;;;14.18;9.55;;;15.90;99.90;;;;;;5110072;28;20046;-76
2023/08/30 09:21:31;;;;;;;15.02;10.15;;;16.00;99.90;;;;;;5106369;28;20031;-74
2023/08/30 09:24:01;;;;;;;12.18;8.55;;;16.00;99.90;;;;;;5106108;28;20028;-73
2023/08/30 09:26:28;;;;;;;17.38;9.70;;;16.00;99.90;;;;;;5107767;28;20076;-77
2023/08/30 09:28:55;;;;;;;13.15;8.60;;;16.00;99.90;;;;;;5108867;28;20032;-75
2023/08/30 09:31:21;;;;;;;14.95;9.38;;;16.10;99.90;;;;;;5107875;28;20023;-76
2023/08/30 09:33:47;;;;;;;18.13;9.02;;;16.10;99.90;;;;;;5109559;28;20084;-76
2023/08/30 09:36:13;;;;;;;12.40;7.60;;;16.20;99.90;;;;;;5109457;27;20122;-76
2023/08/30 09:38:39;;;;;;;12.80;8.30;;;16.30;99.90;;;;;;5106829;28;20110;-75
2023/08/30 09:41:05;;;;;;;12.52;8.68;;;16.20;99.90;;;;;;5089729;28;20056;-77
2023/08/30 09:43:34;;;;;;;13.73;9.10;;;16.50;99.90;;;;;;5098735;28;20031;-74
2023/08/30 09:46:04;;;;;;;13.85;9.10;;;16.70;99.90;;;;;;5101104;28;20447;-75
2023/08/30 09:48:31;;;;;;;12.50;8.20;;;16.80;99.90;;;;;;5089078;28;20051;-75
2023/08/30 09:51:07;;;;;;;14.80;8.68;;;16.70;99.90;;;;;;5103783;28;20043;-74
2023/08/30 09:53:44;;;;;;;13.10;8.98;;;16.60;99.90;;;;;;5104388;28;20051;-77
2023/08/30 09:56:12;;;;;;;16.65;8.82;;;16.70;99.90;;;;;;5096556;28;20055;-72
2023/08/30 09:58:40;;;;;;;12.85;8.15;;;16.70;99.90;;;;;;5100124;28;20437;-75
2023/08/30 10:01:07;;;;;;;14.10;8.55;;;16.70;99.90;;;;;;5104778;28;20027;-74
2023/08/30 10:03:34;;;;;;;10.82;7.65;;;16.80;99.90;;;;;;5103773;28;20459;-73
2023/08/30 10:06:05;;;;;;;13.60;7.57;;;16.80;99.90;;;;;;5101764;28;20063;-74
2023/08/30 10:08:33;;;;;;;12.20;7.90;;;16.90;99.90;;;;;;5104651;28;20410;-76
2023/08/30 10:11:00;;;;;;;12.52;7.40;;;17.00;99.90;;;;;;5102502;28;20035;-75
2023/08/30 10:13:26;;;;;;;10.55;7.03;;;17.10;99.90;;;;;;5104739;28;20074;-74
2023/08/30 10:15:58;;;;;;;11.05;7.43;;;17.20;99.90;;;;;;5104185;28;20047;-74
2023/08/30 10:18:28;;;;;;;11.02;7.38;;;17.30;99.90;;;;;;5104832;28;20032;-74
2023/08/30 10:20:55;;;;;;;16.27;7.90;;;17.40;99.90;;;;;;5104380;28;20031;-74
2023/08/30 10:23:22;;;;;;;12.10;7.10;;;17.60;99.90;;;;;;5106620;28;20554;-73
2023/08/30 10:25:53;;;;;;;12.88;8.10;;;17.80;99.90;;;;;;5103179;28;20030;-73
2023/08/30 10:28:21;;;;;;;18.10;7.22;;;17.90;99.90;;;;;;5097981;28;20370;-73
2023/08/30 10:30:47;;;;;;;14.98;7.35;;;18.00;99.90;;;;;;5106708;28;20046;-75
2023/08/30 10:33:17;;;;;;;10.45;7.38;;;18.20;99.90;;;;;;5100619;28;20027;-74
2023/08/30 10:35:51;;;;;;;10.23;6.80;;;18.20;99.90;;;;;;5100700;28;20059;-75
2023/08/30 10:38:28;;;;;;;9.85;6.97;;;18.30;99.90;;;;;;5104246;28;20085;-76
2023/08/30 10:40:57;;;;;;;8.73;6.03;;;18.30;99.90;;;;;;5093567;28;20582;-74
2023/08/30 10:43:31;;;;;;;8.45;6.25;;;18.30;99.90;;;;;;5107100;28;20061;-74
2023/08/30 10:46:11;;;;;;;8.73;6.55;;;18.30;99.90;;;;;;5089474;28;20032;-73
2023/08/30 10:48:40;;;;;;;9.30;6.50;;;18.60;99.90;;;;;;5057567;28;20043;-75
2023/08/30 10:51:39;;;;;;;9.73;5.95;;;18.50;99.90;;;;;;5063544;28;20482;-75
2023/08/30 10:54:15;;;;;;;8.30;5.28;;;18.80;99.90;;;;;;5010194;28;20048;-75
2023/08/30 10:57:01;;;;;;;8.27;5.50;;;18.90;99.90;;;;;;5063865;28;20028;-72
2023/08/30 10:59:29;;;;;;;9.10;6.07;;;18.80;99.90;;;;;;5064361;28;20060;-73
2023/08/30 11:01:58;;;;;;;9.32;5.97;;;18.50;99.90;;;;;;5064590;28;20074;-78
2023/08/30 11:04:24;;;;;;;6.85;4.75;;;18.30;99.90;;;;;;5034352;28;20071;-76
2023/08/30 11:06:50;;;;;;;6.97;4.72;;;18.30;99.90;;;;;;5061650;28;20767;-74
2023/08/30 11:09:18;;;;;;;8.85;5.55;;;18.40;99.90;;;;;;5064683;28;20025;-75
2023/08/30 11:11:46;;;;;;;9.98;5.47;;;18.40;99.90;;;;;;5062194;28;20067;-76
2023/08/30 11:14:13;;;;;;;6.05;4.13;;;18.20;99.90;;;;;;5063974;28;20098;-75
2023/08/30 11:16:39;;;;;;;6.80;4.55;;;18.20;99.90;;;;;;5060174;28;20037;-75
2023/08/30 11:19:09;;;;;;;6.57;4.57;;;18.20;99.90;;;;;;5065978;28;20147;-75
2023/08/30 11:21:38;;;;;;;5.60;3.97;;;18.30;99.90;;;;;;5067200;28;20033;-75
2023/08/30 11:24:04;;;;;;;7.25;4.78;;;18.40;99.90;;;;;;5064417;28;20060;-73
2023/08/30 11:26:30;;;;;;;5.30;4.18;;;18.50;99.90;;;;;;5064610;28;20051;-76
2023/08/30 11:28:56;;;;;;;5.57;3.17;;;18.60;99.90;;;;;;5047502;28;20036;-74
2023/08/30 11:31:27;;;;;;;5.22;3.10;;;18.60;99.90;;;;;;5067144;28;20107;-78
2023/08/30 11:33:55;;;;;;;4.80;3.35;;;18.60;99.90;;;;;;5069303;28;20488;-79
2023/08/30 11:36:22;;;;;;;4.60;2.90;;;18.50;99.90;;;;;;5087431;28;20475;-77
2023/08/30 11:38:51;;;;;;;5.20;3.08;;;18.20;99.90;;;;;;5068480;28;20526;-72
2023/08/30 11:41:17;;;;;;;3.53;2.60;;;18.00;99.90;;;;;;5064157;28;20546;-74
2023/08/30 11:43:47;;;;;;;6.95;2.70;;;18.00;99.90;;;;;;5060738;28;20056;-74
2023/08/30 11:46:13;;;;;;;5.63;3.28;;;18.20;99.90;;;;;;5066531;28;20017;-74
2023/08/30 11:48:40;;;;;;;5.88;3.20;;;18.30;99.90;;;;;;5083677;28;20733;-73
2023/08/30 11:51:06;;;;;;;6.32;3.08;;;18.20;99.90;;;;;;5084655;28;20135;-74
2023/08/30 11:53:33;;;;;;;5.30;3.17;;;18.00;99.90;;;;;;5084871;28;20082;-75
2023/08/30 11:55:58;;;;;;;4.22;3.65;;;18.10;99.90;;;;;;5086714;28;20032;-78
2023/08/30 11:58:27;;;;;;;6.45;3.95;;;18.30;99.90;;;;;;5060036;28;20064;-73
2023/08/30 12:00:54;;;;;;;4.93;3.50;;;18.50;99.90;;;;;;5067511;28;20059;-72
2023/08/30 12:03:20;;;;;;;4.43;3.45;;;18.90;99.90;;;;;;5085985;28;20107;-75
2023/08/30 12:05:48;;;;;;;4.55;2.97;;;19.30;99.90;;;;;;5091415;28;20128;-76
2023/08/30 12:08:30;;;;;;;6.55;3.38;;;19.40;99.90;;;;;;5091719;28;20353;-75
2023/08/30 12:10:59;;;;;;;4.75;3.33;;;19.50;99.90;;;;;;5091106;28;20568;-76
2023/08/30 12:13:28;;;;;;;8.18;4.00;;;19.60;99.90;;;;;;5086899;28;20040;-77
2023/08/30 12:15:55;;;;;;;7.22;3.60;;;19.60;99.90;;;;;;5088429;28;20021;-75
2023/08/30 12:18:27;;;;;;;8.07;4.70;;;19.60;99.90;;;;;;5089333;28;20043;-74
2023/08/30 12:20:55;;;;;;;5.00;3.35;;;19.70;99.90;;;;;;5091303;28;20032;-73
2023/08/30 12:23:25;;;;;;;5.70;3.83;;;19.80;99.90;;;;;;5088728;28;20029;-76
2023/08/30 12:26:09;;;;;;;4.72;3.20;;;19.80;99.90;;;;;;5090346;28;20034;-79
2023/08/30 12:28:39;;;;;;;6.25;3.10;;;19.60;99.90;;;;;;5090271;28;20024;-77
2023/08/30 12:31:06;;;;;;;4.38;3.20;;;19.70;99.90;;;;;;5090311;28;20071;-75